Strona główna
METAR-TAF:

METAR-TAF

Lotnisko :

Port lotniczy Kramfors

Kramfors, Szwecja

Szerokość geograficzna: 63-03N, Długość geograficzna: 017-46E, wysokość: 10 m

Aktualna obserwacja pogody

Raport powstał 34 minut temu, godzina 04:50 UTC
Wiatr 9 kt od północny zachód, zmienny między zachód i północno-północny zachód
Temperatura 2°C
Wilgotność 75%
Ciśnienie 1006 hPa
Widzialność 10 km lub więcej

METAR: ESNK 090450Z AUTO 31009KT 280V340 9999 BKN037/// 02/M02 Q1006

czas: 07:24 (05:24 UTC)


TAF: brakujący

Obserwacja i prognoza pogody dla ponad 4000 lotnisk (raport METAR i TAF).

Dostępne stacje oznaczono żółtymi i czerwonymi punktami na mapie.

Najedź kursorem aby zobaczyć nazwę stacji.

Kliknij aby zobaczyć obserwacje i prognozy pogody.

Aby zmienić mapę: kliknij na zielony przycisk z czarnym krzyżykiem, aby powiększyć; na zielony przycisk z myślnikiem, aby pomniejszyć; na zielone strzałki, aby przejść do map sąsiednich.


METAR-TAF: